Beach, North Dakota
Current Conditions -  °F | °C
As of 4:15 AM on Monday 22 Dec 2014 (Local Time) from K20U Reporting Station
Overcast Overcast  
Wind Chill: 18°   Ceiling: 800
Heat Index: 32°   Visibility: 10mi
Dew Point: 32°   Wind: 26mph
Humidity: 100%   Direction: 310°NW
Pressure: 29.49"   Gusts: 33mph
Location:  46.92°N, 104°W
Report Text: K20U 221115Z AUTO 31023G29KT 10SM BKN008 BKN021 OVC034 00/00 A2949 RMK AO2
Loading
Personal Weather Stations






























Interactive Weather Map New forecast layout! Learn more

10-Day Weather Forecast

Advertisements
Track Severe Weather on mobile